createdAt,value
2024-02-12T00:03:28.363Z,2.16
2024-02-12T00:08:33.665Z,1.89
2024-02-12T00:13:36.546Z,2.01
2024-02-12T00:18:39.533Z,1.74
2024-02-12T00:23:45.490Z,1.96
2024-02-12T00:28:49.519Z,1.88
2024-02-12T00:33:53.199Z,2.06
2024-02-12T00:38:56.932Z,1.98
2024-02-12T00:43:59.892Z,1.88
2024-02-12T00:49:03.482Z,1.92
2024-02-12T00:54:07.606Z,1.72
2024-02-12T00:59:16.607Z,1.53
2024-02-12T01:04:20.657Z,1.53
2024-02-12T01:09:23.403Z,1.89
2024-02-12T01:14:30.132Z,2.07
2024-02-12T01:19:36.688Z,2.05
2024-02-12T01:24:39.527Z,1.82
2024-02-12T01:29:45.276Z,1.74
2024-02-12T01:34:48.545Z,1.73
2024-02-12T01:39:52.462Z,1.75
2024-02-12T01:45:13.969Z,1.64
2024-02-12T01:50:18.685Z,1.72
2024-02-12T01:55:23.198Z,1.55
2024-02-12T02:00:28.833Z,1.56
2024-02-12T02:05:42.796Z,1.50
2024-02-12T02:10:50.340Z,1.50
2024-02-12T02:15:54.507Z,1.45
2024-02-12T02:20:58.553Z,1.67
2024-02-12T02:26:01.804Z,1.81
2024-02-12T02:31:05.985Z,1.84
2024-02-12T02:36:09.635Z,1.78
2024-02-12T02:41:14.853Z,1.93
2024-02-12T02:46:27.964Z,1.95
2024-02-12T02:51:32.296Z,1.92
2024-02-12T02:56:35.930Z,1.95
2024-02-12T03:01:39.620Z,1.80
2024-02-12T03:06:42.890Z,1.68
2024-02-12T03:11:46.792Z,1.69
2024-02-12T03:17:08.574Z,1.52
2024-02-12T03:22:11.595Z,1.63
2024-02-12T03:27:14.480Z,1.83
2024-02-12T03:32:17.559Z,1.92
2024-02-12T03:37:20.808Z,1.86
2024-02-12T03:42:30.208Z,1.90
2024-02-12T03:47:40.421Z,1.98
2024-02-12T03:53:02.873Z,1.85
2024-02-12T03:58:24.483Z,2.09
2024-02-12T04:03:28.410Z,2.11
2024-02-12T04:08:51.281Z,2.11
2024-02-12T04:13:56.156Z,2.18
2024-02-12T04:19:00.051Z,1.80
2024-02-12T04:24:06.237Z,2.12
2024-02-12T04:29:09.266Z,2.14
2024-02-12T04:34:14.786Z,2.28
2024-02-12T04:39:17.750Z,2.35
2024-02-12T04:44:22.323Z,2.40
2024-02-12T04:49:25.164Z,2.49
2024-02-12T04:54:27.854Z,2.27
2024-02-12T04:59:31.449Z,2.42
2024-02-12T05:04:36.121Z,2.21
2024-02-12T05:09:39.169Z,2.11
2024-02-12T05:14:44.984Z,2.52
2024-02-12T05:20:06.488Z,2.42
2024-02-12T05:25:09.537Z,2.69
2024-02-12T05:30:13.238Z,2.90
2024-02-12T05:35:16.713Z,2.87
2024-02-12T05:40:21.769Z,3.03
2024-02-12T05:45:24.861Z,2.96
2024-02-12T05:50:36.679Z,3.13
2024-02-12T05:55:42.113Z,3.17
2024-02-12T06:00:48.402Z,3.16
2024-02-12T06:05:53.219Z,3.17
2024-02-12T06:10:56.230Z,3.28
2024-02-12T06:15:59.451Z,3.12
2024-02-12T06:21:02.536Z,3.23
2024-02-12T06:26:07.809Z,3.13
2024-02-12T06:31:11.505Z,3.28
2024-02-12T06:36:14.659Z,3.12
2024-02-12T06:41:22.212Z,3.30
2024-02-12T06:46:25.457Z,3.29
2024-02-12T06:51:29.186Z,3.42
2024-02-12T06:56:45.075Z,3.56
2024-02-12T07:01:49.448Z,3.62
2024-02-12T07:06:52.134Z,3.53
2024-02-12T07:11:55.539Z,3.77
2024-02-12T07:16:58.547Z,3.79
2024-02-12T07:22:02.564Z,3.63
2024-02-12T07:27:07.257Z,3.89
2024-02-12T07:32:14.982Z,4.00
2024-02-12T07:37:20.213Z,4.05
2024-02-12T07:42:33.696Z,3.66
2024-02-12T07:47:36.783Z,3.81
2024-02-12T07:52:39.751Z,3.82
2024-02-12T07:57:45.329Z,4.00
2024-02-12T08:02:48.990Z,3.87
2024-02-12T08:08:02.557Z,3.91
2024-02-12T08:13:08.832Z,3.92
2024-02-12T08:18:11.737Z,4.34
2024-02-12T08:23:14.827Z,4.55
2024-02-12T08:28:18.547Z,4.51
2024-02-12T08:33:21.948Z,4.36
2024-02-12T08:38:25.468Z,4.30
2024-02-12T08:43:28.508Z,4.53
2024-02-12T08:48:32.525Z,4.59
2024-02-12T08:53:35.371Z,3.98
2024-02-12T08:58:39.806Z,3.88
2024-02-12T09:03:44.459Z,4.37
2024-02-12T09:08:47.966Z,4.51
2024-02-12T09:13:52.278Z,4.52
2024-02-12T09:18:55.929Z,4.79
2024-02-12T09:23:58.937Z,4.67
2024-02-12T09:29:03.304Z,4.60
2024-02-12T09:34:07.130Z,4.59
2024-02-12T09:39:10.680Z,4.43
2024-02-12T09:44:15.883Z,4.75
2024-02-12T09:49:45.815Z,4.89
2024-02-12T09:54:52.711Z,4.81
2024-02-12T09:59:59.663Z,4.71
2024-02-12T10:05:08.223Z,4.70
2024-02-12T10:10:32.502Z,4.95
2024-02-12T10:15:58.175Z,4.63
2024-02-12T10:21:24.899Z,4.67
2024-02-12T10:26:54.806Z,4.96
2024-02-12T10:32:17.991Z,4.67
2024-02-12T10:37:42.033Z,4.86
2024-02-12T10:43:07.001Z,4.97
2024-02-12T10:48:33.251Z,4.90
2024-02-12T10:53:57.322Z,4.91
2024-02-12T10:59:16.119Z,4.98
2024-02-12T11:04:19.713Z,4.89
2024-02-12T11:09:33.372Z,4.71
2024-02-12T11:14:36.384Z,4.58
2024-02-12T11:19:50.205Z,4.42
2024-02-12T11:24:52.895Z,4.44
2024-02-12T11:29:56.098Z,4.47
2024-02-12T11:35:21.465Z,4.78
2024-02-12T11:40:24.479Z,4.87
2024-02-12T11:45:42.945Z,4.74
2024-02-12T11:50:51.034Z,4.61
2024-02-12T11:55:54.033Z,4.54
2024-02-12T12:00:59.916Z,4.59
2024-02-12T12:06:03.907Z,4.37
2024-02-12T12:11:08.344Z,4.72
2024-02-12T12:16:12.323Z,4.62
2024-02-12T12:21:20.331Z,4.71
2024-02-12T12:26:43.155Z,4.85
2024-02-12T12:31:46.196Z,4.81
2024-02-12T12:36:49.077Z,4.86
2024-02-12T12:41:52.468Z,4.63
2024-02-12T12:46:56.603Z,4.60
2024-02-12T12:52:01.266Z,4.78
2024-02-12T12:57:07.432Z,4.66
2024-02-12T13:02:11.616Z,4.58
2024-02-12T13:07:16.212Z,4.77
2024-02-12T13:12:19.573Z,4.81
2024-02-12T13:17:23.064Z,4.78
2024-02-12T13:22:26.064Z,4.73
2024-02-12T13:27:29.179Z,4.58
2024-02-12T13:32:32.591Z,4.75
2024-02-12T13:37:36.123Z,4.67
2024-02-12T13:42:39.126Z,4.56
2024-02-12T13:47:43.361Z,4.58
2024-02-12T13:52:48.427Z,4.61
2024-02-12T13:57:54.742Z,4.35
2024-02-12T14:02:58.970Z,4.66
2024-02-12T14:08:03.889Z,4.56
2024-02-12T14:13:07.778Z,4.67
2024-02-12T14:18:11.919Z,4.99
2024-02-12T14:23:15.051Z,4.93
2024-02-12T14:28:18.134Z,4.95
2024-02-12T14:33:23.036Z,4.91
2024-02-12T14:38:26.532Z,4.97
2024-02-12T14:43:30.216Z,5.07
2024-02-12T14:48:33.919Z,5.02
2024-02-12T14:53:36.929Z,5.23
2024-02-12T14:58:41.997Z,5.31
2024-02-12T15:03:45.252Z,5.38
2024-02-12T15:08:48.146Z,5.28
2024-02-12T15:13:51.286Z,5.28
2024-02-12T15:18:55.321Z,5.06
2024-02-12T15:23:59.179Z,5.12
2024-02-12T15:29:03.064Z,4.92
2024-02-12T15:34:05.995Z,4.84
2024-02-12T15:39:12.860Z,4.66
2024-02-12T15:44:16.034Z,4.81
2024-02-12T15:49:20.090Z,4.63
2024-02-12T15:54:24.139Z,4.65
2024-02-12T15:59:27.941Z,4.62
2024-02-12T16:04:31.664Z,4.78
2024-02-12T16:09:35.514Z,4.87
2024-02-12T16:14:39.035Z,4.93
2024-02-12T16:19:46.071Z,5.02
2024-02-12T16:24:49.852Z,4.92
2024-02-12T16:29:53.009Z,4.61
2024-02-12T16:34:56.079Z,4.64
2024-02-12T16:40:01.775Z,4.77
2024-02-12T16:45:12.008Z,4.93
2024-02-12T16:50:27.292Z,4.90
2024-02-12T16:55:31.106Z,4.64
2024-02-12T17:00:35.064Z,4.77
2024-02-12T17:05:52.053Z,4.73
2024-02-12T17:10:56.915Z,4.57
2024-02-12T17:16:01.023Z,4.63
2024-02-12T17:21:07.005Z,4.62
2024-02-12T17:26:36.306Z,4.65
2024-02-12T17:31:39.896Z,4.58
2024-02-12T17:36:43.015Z,4.63
2024-02-12T17:41:47.477Z,4.58
2024-02-12T17:46:50.574Z,4.63
2024-02-12T17:51:55.603Z,4.70
2024-02-12T17:56:58.399Z,4.67
2024-02-12T18:02:02.321Z,4.64
2024-02-12T18:07:14.640Z,4.85
2024-02-12T18:12:22.608Z,4.95
2024-02-12T18:17:29.073Z,4.82
2024-02-12T18:22:32.504Z,4.99
2024-02-12T18:27:36.095Z,5.02
2024-02-12T18:32:41.654Z,4.90
2024-02-12T18:37:50.305Z,4.93
2024-02-12T18:42:55.029Z,5.05
2024-02-12T18:48:01.882Z,5.08
2024-02-12T18:53:12.311Z,5.21
2024-02-12T18:58:16.050Z,4.95
2024-02-12T19:03:18.860Z,5.20
2024-02-12T19:08:23.145Z,5.17
2024-02-12T19:13:28.185Z,5.00
2024-02-12T19:18:31.454Z,5.01
2024-02-12T19:23:36.010Z,5.12
2024-02-12T19:28:40.765Z,5.03
2024-02-12T19:33:43.890Z,5.32
2024-02-12T19:38:49.257Z,5.25
2024-02-12T19:43:52.220Z,5.24
2024-02-12T19:48:56.097Z,5.36
2024-02-12T19:54:02.942Z,5.30
2024-02-12T19:59:07.716Z,5.16
2024-02-12T20:04:10.901Z,5.04
2024-02-12T20:09:14.197Z,5.13
2024-02-12T20:14:17.036Z,5.17
2024-02-12T20:19:23.777Z,5.08
2024-02-12T20:24:26.646Z,5.13
2024-02-12T20:29:29.759Z,5.06
2024-02-12T20:34:35.157Z,5.16
2024-02-12T20:39:39.359Z,5.17
2024-02-12T20:44:43.110Z,5.00
2024-02-12T20:49:50.261Z,5.05
2024-02-12T20:54:53.047Z,5.52
2024-02-12T20:59:55.982Z,5.43
2024-02-12T21:05:01.104Z,5.34
2024-02-12T21:10:08.963Z,5.58
2024-02-12T21:15:14.130Z,5.48
2024-02-12T21:20:27.151Z,5.30
2024-02-12T21:25:30.225Z,5.15
2024-02-12T21:30:34.008Z,5.25
2024-02-12T21:35:37.558Z,5.17
2024-02-12T21:40:42.568Z,5.45
2024-02-12T21:45:46.193Z,5.44
2024-02-12T21:50:50.784Z,5.38
2024-02-12T21:55:53.688Z,5.48
2024-02-12T22:00:57.336Z,5.59
2024-02-12T22:06:01.878Z,5.24
2024-02-12T22:11:07.153Z,5.33
2024-02-12T22:16:12.679Z,5.16
2024-02-12T22:21:15.634Z,5.13
2024-02-12T22:26:18.795Z,5.10
2024-02-12T22:31:21.704Z,5.24
2024-02-12T22:36:24.714Z,5.66
2024-02-12T22:41:27.510Z,5.60
2024-02-12T22:46:30.690Z,5.76
2024-02-12T22:51:33.611Z,5.44
2024-02-12T22:56:36.202Z,5.43
2024-02-12T23:01:40.615Z,5.52
2024-02-12T23:06:43.623Z,5.58
2024-02-12T23:11:48.585Z,5.61
2024-02-12T23:16:51.720Z,5.68
2024-02-12T23:21:54.316Z,5.48
2024-02-12T23:26:57.272Z,5.49
2024-02-12T23:32:00.499Z,5.50
2024-02-12T23:37:03.538Z,5.71
2024-02-12T23:42:06.517Z,5.58
2024-02-12T23:47:12.046Z,5.44
2024-02-12T23:52:16.911Z,5.55
2024-02-12T23:57:19.964Z,5.60
